createdAt,value
2024-01-06T00:05:20.955Z,5.85
2024-01-06T00:15:26.801Z,5.53
2024-01-06T00:25:30.468Z,4.88
2024-01-06T00:35:32.068Z,5.18
2024-01-06T00:45:33.839Z,4.88
2024-01-06T00:55:40.702Z,5.03
2024-01-06T01:05:42.181Z,4.95
2024-01-06T01:15:43.992Z,5.40
2024-01-06T01:25:48.341Z,5.85
2024-01-06T01:35:50.052Z,6.32
2024-01-06T01:45:51.582Z,5.80
2024-01-06T01:55:53.063Z,6.22
2024-01-06T02:05:55.038Z,6.57
2024-01-06T02:15:56.680Z,6.40
2024-01-06T02:25:58.185Z,5.82
2024-01-06T02:35:59.811Z,6.72
2024-01-06T02:46:01.239Z,6.20
2024-01-06T02:56:02.640Z,6.80
2024-01-06T03:06:04.285Z,6.15
2024-01-06T03:16:05.715Z,5.47
2024-01-06T03:26:08.200Z,6.25
2024-01-06T03:36:10.119Z,5.45
2024-01-06T03:46:11.557Z,5.55
2024-01-06T03:56:13.002Z,5.68
2024-01-06T04:06:14.808Z,6.10
2024-01-06T04:16:16.269Z,7.13
2024-01-06T04:26:17.714Z,7.85
2024-01-06T04:36:19.198Z,5.15
2024-01-06T04:46:21.031Z,6.57
2024-01-06T04:56:22.611Z,7.40
2024-01-06T05:06:24.080Z,8.02
2024-01-06T05:16:25.547Z,7.95
2024-01-06T05:26:27.027Z,7.82
2024-01-06T05:36:28.692Z,7.40
2024-01-06T05:46:30.144Z,8.80
2024-01-06T05:56:50.233Z,8.20
2024-01-06T06:07:10.582Z,6.70
2024-01-06T06:17:30.417Z,10.02
2024-01-06T06:27:50.617Z,9.00
2024-01-06T06:38:10.631Z,8.48
2024-01-06T06:48:31.291Z,9.65
2024-01-06T06:58:51.446Z,10.45
2024-01-06T07:09:11.465Z,10.35
2024-01-06T07:19:35.562Z,9.95
2024-01-06T07:29:56.124Z,10.52
2024-01-06T07:40:16.095Z,10.27
2024-01-06T07:50:17.709Z,11.52
2024-01-06T08:00:19.303Z,9.43
2024-01-06T08:10:20.939Z,10.73
2024-01-06T08:20:22.632Z,10.65
2024-01-06T08:40:34.736Z,11.80
2024-01-06T08:50:37.073Z,11.57
2024-01-06T09:00:38.643Z,13.93
2024-01-06T09:10:40.513Z,14.52
2024-01-06T09:20:42.099Z,12.57
2024-01-06T09:30:43.886Z,12.13
2024-01-06T09:40:51.489Z,9.40
2024-01-06T09:50:53.089Z,9.73
2024-01-06T10:00:54.739Z,10.05
2024-01-06T10:10:59.922Z,7.32
2024-01-06T10:21:01.546Z,7.43
2024-01-06T10:41:48.905Z,7.47
2024-01-06T10:51:53.704Z,7.63
2024-01-06T11:02:00.770Z,7.90
2024-01-06T11:12:09.254Z,4.82
2024-01-06T12:25:50.278Z,8.98
2024-01-06T12:36:14.151Z,8.30
2024-01-06T12:46:41.047Z,7.10
2024-01-06T12:57:01.088Z,7.60
2024-01-06T13:07:21.588Z,9.77
2024-01-06T13:17:42.227Z,9.18
2024-01-06T13:28:07.388Z,9.25
2024-01-06T13:38:35.949Z,9.10
2024-01-06T13:48:56.365Z,7.55
2024-01-06T13:59:42.605Z,9.93
2024-01-06T14:21:13.334Z,10.38
2024-01-06T14:52:48.369Z,10.02
2024-01-06T15:13:33.805Z,10.02
2024-01-06T15:23:36.321Z,10.10
2024-01-06T15:33:45.790Z,9.35
2024-01-06T15:43:55.934Z,9.13
2024-01-06T15:53:57.613Z,10.93
2024-01-06T16:03:59.722Z,10.20
2024-01-06T16:14:01.452Z,10.25
2024-01-06T16:24:03.172Z,10.35
2024-01-06T16:34:05.787Z,12.48
2024-01-06T16:54:38.540Z,12.65
2024-01-06T17:04:46.346Z,10.82
2024-01-06T17:14:49.221Z,15.65
2024-01-06T17:25:08.438Z,14.88
2024-01-06T17:35:30.709Z,16.73
2024-01-06T17:45:32.498Z,13.98
2024-01-06T17:55:34.224Z,17.90
2024-01-06T18:05:36.007Z,16.17
2024-01-06T18:15:37.871Z,15.55
2024-01-06T18:25:39.474Z,15.75
2024-01-06T18:35:48.269Z,15.52
2024-01-06T18:45:50.349Z,17.23
2024-01-06T18:55:52.195Z,16.52
2024-01-06T19:05:56.425Z,20.77
2024-01-06T19:16:03.274Z,16.73
2024-01-06T19:26:05.039Z,17.05
2024-01-06T19:36:06.710Z,17.98
2024-01-06T19:46:09.713Z,17.95
2024-01-06T19:56:11.629Z,18.40
2024-01-06T20:06:13.278Z,17.80
2024-01-06T20:16:17.629Z,17.17
2024-01-06T20:26:35.154Z,15.30
2024-01-06T20:46:52.802Z,14.73
2024-01-06T20:56:54.329Z,13.32
2024-01-06T21:06:59.045Z,11.98
2024-01-06T21:17:01.061Z,9.23
2024-01-06T21:27:05.347Z,11.40
2024-01-06T21:37:11.097Z,11.32
2024-01-06T21:47:12.784Z,11.43
2024-01-06T21:57:14.852Z,10.30
2024-01-06T22:07:16.640Z,12.20
2024-01-06T22:17:18.748Z,12.18
2024-01-06T22:27:20.739Z,12.93
2024-01-06T22:37:22.672Z,9.45
2024-01-06T22:47:25.429Z,11.18
2024-01-06T22:57:27.053Z,9.15
2024-01-06T23:07:28.704Z,10.80
2024-01-06T23:17:32.836Z,10.00
2024-01-06T23:27:35.931Z,10.85
2024-01-06T23:37:40.952Z,9.07
2024-01-06T23:47:43.656Z,9.52
2024-01-06T23:58:12.174Z,9.38
